Portada
METAR-TAF:

METAR-TAF

Aeropuertos :

Maracaibo, Venezuela

Aeropuerto Internacional de La Chinita

latitud: 10-34N, longitud: 071-44W, altitud: 66 m

Observación

El informe se hizo hace 1 hora y 17 minutos, a las 14:00 UTC
Temperatura 28°C
Humedad 66%
Presión 1013 hPa
Visibilidad 10 km o más
Escasas nubes a una altura de 1600 ft

METAR: SVMC 111400Z /////KT 9999 FEW016 28/21 Q1013

Hora: 11:17 (15:17 UTC)

Pronóstico

El informe se hizo hace 5 horas y 17 minutos, a las 10:00 UTC
Pronóstico válido del 11 a las 12 UTC al 12 a las 12 UTC
Viento 3 kt del este
Visibilidad 10 km o más
Escasas nubes a una altura de 1300 ft
Evolucionando progresivamente
del 11 a las 14 UTC al 11 a las 18 UTC
Viento 6 kt del este
Visibilidad 10 km o más
Nubes dispersas a una altura de 1300 ft

TAF: SVMC 111000Z 1112/1212 10003KT 9999 FEW013 TX35/19Z TN24/09Z BECMG 1114/1118 08006KT 9999 SCT013

Observaciones y pronósticos meteorológicos de más de 4000 aeropuertos (mensajes METAR y TAF).

Los puntos amarillos y rojos representan las estaciones disponibles.

Ponga el ratón en el punto deseado para ver el nombre de la estación.

Haga clic para ver las observaciones y los pronósticos meteorológicos.

Para cambiar el mapa : haga clic en los botones verdes con una cruz de color negro para hacer un zoom, en el botón verde con un guión para alejar o en las flechas verdes para mapas adyacentes.


METAR-TAF: